sensor_id;sensor_type;location;lat;lon;timestamp;P1;durP1;ratioP1;P2;durP2;ratioP2
39540;SDS011;25219;52.244;21.006;2023-04-28T00:00:08;25.98;;;10.70;;
39540;SDS011;25219;52.244;21.006;2023-04-28T00:02:35;28.92;;;11.75;;
39540;SDS011;25219;52.244;21.006;2023-04-28T00:05:01;31.33;;;12.13;;
39540;SDS011;25219;52.244;21.006;2023-04-28T00:07:26;29.93;;;11.80;;
39540;SDS011;25219;52.244;21.006;2023-04-28T00:09:51;28.90;;;11.63;;
39540;SDS011;25219;52.244;21.006;2023-04-28T00:12:16;27.80;;;11.77;;
39540;SDS011;25219;52.244;21.006;2023-04-28T00:14:42;24.50;;;12.03;;
39540;SDS011;25219;52.244;21.006;2023-04-28T00:17:07;24.70;;;11.27;;
39540;SDS011;25219;52.244;21.006;2023-04-28T00:19:34;30.50;;;10.50;;
39540;SDS011;25219;52.244;21.006;2023-04-28T00:21:59;26.57;;;11.10;;
39540;SDS011;25219;52.244;21.006;2023-04-28T00:24:24;24.92;;;10.75;;
39540;SDS011;25219;52.244;21.006;2023-04-28T00:26:50;22.27;;;9.63;;
39540;SDS011;25219;52.244;21.006;2023-04-28T00:29:15;22.42;;;9.52;;
39540;SDS011;25219;52.244;21.006;2023-04-28T00:31:40;24.07;;;10.10;;
39540;SDS011;25219;52.244;21.006;2023-04-28T00:34:05;23.20;;;10.20;;
39540;SDS011;25219;52.244;21.006;2023-04-28T00:36:30;20.05;;;10.25;;
39540;SDS011;25219;52.244;21.006;2023-04-28T00:38:57;21.33;;;10.32;;
39540;SDS011;25219;52.244;21.006;2023-04-28T00:41:22;22.17;;;9.75;;
39540;SDS011;25219;52.244;21.006;2023-04-28T00:43:48;25.40;;;11.38;;
39540;SDS011;25219;52.244;21.006;2023-04-28T00:46:17;22.98;;;10.13;;
39540;SDS011;25219;52.244;21.006;2023-04-28T00:48:43;25.33;;;9.88;;
39540;SDS011;25219;52.244;21.006;2023-04-28T00:51:09;22.07;;;8.83;;
39540;SDS011;25219;52.244;21.006;2023-04-28T00:53:34;24.70;;;9.53;;
39540;SDS011;25219;52.244;21.006;2023-04-28T00:55:59;24.00;;;10.48;;
39540;SDS011;25219;52.244;21.006;2023-04-28T00:58:25;24.75;;;10.45;;
39540;SDS011;25219;52.244;21.006;2023-04-28T01:00:50;24.58;;;10.00;;
39540;SDS011;25219;52.244;21.006;2023-04-28T01:03:15;22.58;;;9.05;;
39540;SDS011;25219;52.244;21.006;2023-04-28T01:05:40;31.20;;;10.98;;
39540;SDS011;25219;52.244;21.006;2023-04-28T01:08:06;22.05;;;9.57;;
39540;SDS011;25219;52.244;21.006;2023-04-28T01:10:31;22.20;;;10.23;;
39540;SDS011;25219;52.244;21.006;2023-04-28T01:12:56;24.10;;;10.82;;
39540;SDS011;25219;52.244;21.006;2023-04-28T01:15:22;22.63;;;10.23;;
39540;SDS011;25219;52.244;21.006;2023-04-28T01:17:47;22.83;;;10.43;;
39540;SDS011;25219;52.244;21.006;2023-04-28T01:20:13;25.85;;;10.75;;
39540;SDS011;25219;52.244;21.006;2023-04-28T01:22:38;27.08;;;10.73;;
39540;SDS011;25219;52.244;21.006;2023-04-28T01:25:04;24.13;;;10.30;;
39540;SDS011;25219;52.244;21.006;2023-04-28T01:27:29;25.27;;;11.55;;
39540;SDS011;25219;52.244;21.006;2023-04-28T01:29:54;30.23;;;11.00;;
39540;SDS011;25219;52.244;21.006;2023-04-28T01:32:21;28.33;;;11.52;;
39540;SDS011;25219;52.244;21.006;2023-04-28T01:34:46;25.40;;;12.00;;
39540;SDS011;25219;52.244;21.006;2023-04-28T01:37:11;25.67;;;11.07;;
39540;SDS011;25219;52.244;21.006;2023-04-28T01:39:36;30.90;;;11.75;;
39540;SDS011;25219;52.244;21.006;2023-04-28T01:42:02;26.33;;;11.80;;
39540;SDS011;25219;52.244;21.006;2023-04-28T01:44:27;31.13;;;13.15;;
39540;SDS011;25219;52.244;21.006;2023-04-28T01:46:52;24.97;;;11.07;;
39540;SDS011;25219;52.244;21.006;2023-04-28T01:49:17;25.87;;;11.50;;
39540;SDS011;25219;52.244;21.006;2023-04-28T01:51:43;25.52;;;11.10;;
39540;SDS011;25219;52.244;21.006;2023-04-28T01:54:08;26.15;;;11.93;;
39540;SDS011;25219;52.244;21.006;2023-04-28T01:56:33;28.98;;;11.85;;
39540;SDS011;25219;52.244;21.006;2023-04-28T01:58:59;27.70;;;11.25;;
39540;SDS011;25219;52.244;21.006;2023-04-28T02:01:24;27.40;;;11.48;;
39540;SDS011;25219;52.244;21.006;2023-04-28T02:03:49;22.77;;;11.05;;
39540;SDS011;25219;52.244;21.006;2023-04-28T02:06:14;25.35;;;11.20;;
39540;SDS011;25219;52.244;21.006;2023-04-28T02:08:40;25.63;;;11.70;;
39540;SDS011;25219;52.244;21.006;2023-04-28T02:11:05;27.67;;;12.07;;
39540;SDS011;25219;52.244;21.006;2023-04-28T02:13:30;26.50;;;12.13;;
39540;SDS011;25219;52.244;21.006;2023-04-28T02:15:55;27.87;;;11.97;;
39540;SDS011;25219;52.244;21.006;2023-04-28T02:18:24;21.33;;;11.07;;
39540;SDS011;25219;52.244;21.006;2023-04-28T02:20:49;28.10;;;11.97;;
39540;SDS011;25219;52.244;21.006;2023-04-28T02:23:14;28.25;;;11.93;;
39540;SDS011;25219;52.244;21.006;2023-04-28T02:25:39;28.65;;;11.70;;
39540;SDS011;25219;52.244;21.006;2023-04-28T02:28:04;28.50;;;11.90;;
39540;SDS011;25219;52.244;21.006;2023-04-28T02:30:30;23.40;;;11.20;;
39540;SDS011;25219;52.244;21.006;2023-04-28T02:32:55;25.88;;;11.30;;
39540;SDS011;25219;52.244;21.006;2023-04-28T02:35:20;29.63;;;11.73;;
39540;SDS011;25219;52.244;21.006;2023-04-28T02:37:46;31.42;;;11.52;;
39540;SDS011;25219;52.244;21.006;2023-04-28T02:40:11;27.97;;;10.73;;
39540;SDS011;25219;52.244;21.006;2023-04-28T02:42:36;24.55;;;11.25;;
39540;SDS011;25219;52.244;21.006;2023-04-28T02:45:01;27.40;;;12.07;;
39540;SDS011;25219;52.244;21.006;2023-04-28T02:47:27;23.17;;;10.68;;
39540;SDS011;25219;52.244;21.006;2023-04-28T02:49:52;36.80;;;11.60;;
39540;SDS011;25219;52.244;21.006;2023-04-28T02:52:17;23.80;;;11.53;;
39540;SDS011;25219;52.244;21.006;2023-04-28T02:54:42;27.13;;;10.87;;
39540;SDS011;25219;52.244;21.006;2023-04-28T02:57:07;31.80;;;11.20;;
39540;SDS011;25219;52.244;21.006;2023-04-28T02:59:33;24.10;;;11.43;;
39540;SDS011;25219;52.244;21.006;2023-04-28T03:01:59;26.27;;;11.52;;
39540;SDS011;25219;52.244;21.006;2023-04-28T03:04:24;24.17;;;11.67;;
39540;SDS011;25219;52.244;21.006;2023-04-28T03:06:49;33.35;;;12.57;;
39540;SDS011;25219;52.244;21.006;2023-04-28T03:09:15;24.92;;;10.80;;
39540;SDS011;25219;52.244;21.006;2023-04-28T03:11:40;20.17;;;10.05;;
39540;SDS011;25219;52.244;21.006;2023-04-28T03:14:06;24.88;;;12.25;;
39540;SDS011;25219;52.244;21.006;2023-04-28T03:16:31;32.95;;;11.85;;
39540;SDS011;25219;52.244;21.006;2023-04-28T03:18:56;27.83;;;11.55;;
39540;SDS011;25219;52.244;21.006;2023-04-28T03:21:21;23.52;;;11.25;;
39540;SDS011;25219;52.244;21.006;2023-04-28T03:23:47;30.42;;;11.45;;
39540;SDS011;25219;52.244;21.006;2023-04-28T03:26:12;20.10;;;10.37;;
39540;SDS011;25219;52.244;21.006;2023-04-28T03:28:37;25.67;;;11.80;;
39540;SDS011;25219;52.244;21.006;2023-04-28T03:31:02;30.08;;;11.63;;
39540;SDS011;25219;52.244;21.006;2023-04-28T03:33:28;24.38;;;11.73;;
39540;SDS011;25219;52.244;21.006;2023-04-28T03:35:53;26.70;;;12.05;;
39540;SDS011;25219;52.244;21.006;2023-04-28T03:38:18;28.60;;;12.18;;
39540;SDS011;25219;52.244;21.006;2023-04-28T03:40:44;28.10;;;11.05;;
39540;SDS011;25219;52.244;21.006;2023-04-28T03:43:09;27.83;;;11.25;;
39540;SDS011;25219;52.244;21.006;2023-04-28T03:45:35;26.95;;;12.77;;
39540;SDS011;25219;52.244;21.006;2023-04-28T03:48:00;29.77;;;11.25;;
39540;SDS011;25219;52.244;21.006;2023-04-28T03:50:25;26.53;;;11.43;;
39540;SDS011;25219;52.244;21.006;2023-04-28T03:52:50;23.33;;;10.70;;
39540;SDS011;25219;52.244;21.006;2023-04-28T03:55:15;34.78;;;12.68;;
39540;SDS011;25219;52.244;21.006;2023-04-28T03:57:41;22.87;;;10.83;;
39540;SDS011;25219;52.244;21.006;2023-04-28T04:00:06;29.30;;;12.05;;
39540;SDS011;25219;52.244;21.006;2023-04-28T04:02:32;26.35;;;11.75;;
39540;SDS011;25219;52.244;21.006;2023-04-28T04:04:57;32.27;;;12.37;;
39540;SDS011;25219;52.244;21.006;2023-04-28T04:07:22;25.45;;;11.80;;
39540;SDS011;25219;52.244;21.006;2023-04-28T04:09:47;26.05;;;11.77;;
39540;SDS011;25219;52.244;21.006;2023-04-28T04:12:12;27.33;;;11.77;;
39540;SDS011;25219;52.244;21.006;2023-04-28T04:14:38;33.30;;;12.15;;
39540;SDS011;25219;52.244;21.006;2023-04-28T04:17:03;33.20;;;11.80;;
39540;SDS011;25219;52.244;21.006;2023-04-28T04:19:28;31.40;;;12.30;;
39540;SDS011;25219;52.244;21.006;2023-04-28T04:21:53;29.90;;;12.23;;
39540;SDS011;25219;52.244;21.006;2023-04-28T04:24:19;32.45;;;12.57;;
39540;SDS011;25219;52.244;21.006;2023-04-28T04:26:44;29.50;;;11.70;;
39540;SDS011;25219;52.244;21.006;2023-04-28T04:29:09;28.15;;;11.38;;
39540;SDS011;25219;52.244;21.006;2023-04-28T04:31:35;25.98;;;12.30;;
39540;SDS011;25219;52.244;21.006;2023-04-28T04:34:00;36.53;;;13.90;;
39540;SDS011;25219;52.244;21.006;2023-04-28T04:36:25;31.15;;;12.13;;
39540;SDS011;25219;52.244;21.006;2023-04-28T04:38:51;30.52;;;11.35;;
39540;SDS011;25219;52.244;21.006;2023-04-28T04:41:17;25.52;;;11.93;;
39540;SDS011;25219;52.244;21.006;2023-04-28T04:43:42;26.27;;;11.65;;
39540;SDS011;25219;52.244;21.006;2023-04-28T04:46:07;27.48;;;11.95;;
39540;SDS011;25219;52.244;21.006;2023-04-28T04:48:32;24.77;;;11.77;;
39540;SDS011;25219;52.244;21.006;2023-04-28T04:50:57;28.53;;;12.67;;
39540;SDS011;25219;52.244;21.006;2023-04-28T04:53:23;26.07;;;11.90;;
39540;SDS011;25219;52.244;21.006;2023-04-28T04:55:48;23.83;;;12.35;;
39540;SDS011;25219;52.244;21.006;2023-04-28T04:58:13;28.85;;;11.13;;
39540;SDS011;25219;52.244;21.006;2023-04-28T05:00:38;29.70;;;12.48;;
39540;SDS011;25219;52.244;21.006;2023-04-28T05:03:04;28.10;;;11.90;;
39540;SDS011;25219;52.244;21.006;2023-04-28T05:05:30;28.05;;;11.60;;
39540;SDS011;25219;52.244;21.006;2023-04-28T05:07:55;27.75;;;11.98;;
39540;SDS011;25219;52.244;21.006;2023-04-28T05:10:20;36.90;;;12.80;;
39540;SDS011;25219;52.244;21.006;2023-04-28T05:12:46;24.77;;;11.57;;
39540;SDS011;25219;52.244;21.006;2023-04-28T05:15:11;24.73;;;10.77;;
39540;SDS011;25219;52.244;21.006;2023-04-28T05:17:36;25.42;;;11.32;;
39540;SDS011;25219;52.244;21.006;2023-04-28T05:20:02;30.98;;;13.13;;
39540;SDS011;25219;52.244;21.006;2023-04-28T05:22:28;31.80;;;12.77;;
39540;SDS011;25219;52.244;21.006;2023-04-28T05:24:55;28.23;;;12.40;;
39540;SDS011;25219;52.244;21.006;2023-04-28T05:27:20;28.85;;;12.60;;
39540;SDS011;25219;52.244;21.006;2023-04-28T05:29:45;28.73;;;13.00;;
39540;SDS011;25219;52.244;21.006;2023-04-28T05:32:12;27.27;;;11.57;;
39540;SDS011;25219;52.244;21.006;2023-04-28T05:34:37;28.38;;;12.25;;
39540;SDS011;25219;52.244;21.006;2023-04-28T05:37:02;24.57;;;11.23;;
39540;SDS011;25219;52.244;21.006;2023-04-28T05:39:27;32.05;;;12.55;;
39540;SDS011;25219;52.244;21.006;2023-04-28T05:41:53;25.93;;;11.97;;
39540;SDS011;25219;52.244;21.006;2023-04-28T05:44:18;21.10;;;11.30;;
39540;SDS011;25219;52.244;21.006;2023-04-28T05:46:43;28.23;;;10.77;;
39540;SDS011;25219;52.244;21.006;2023-04-28T05:49:09;24.43;;;10.90;;
39540;SDS011;25219;52.244;21.006;2023-04-28T05:51:34;23.08;;;11.02;;
39540;SDS011;25219;52.244;21.006;2023-04-28T05:53:59;30.35;;;11.77;;
39540;SDS011;25219;52.244;21.006;2023-04-28T05:56:25;29.00;;;12.57;;
39540;SDS011;25219;52.244;21.006;2023-04-28T05:58:50;26.88;;;12.35;;
39540;SDS011;25219;52.244;21.006;2023-04-28T06:01:16;24.92;;;12.00;;
39540;SDS011;25219;52.244;21.006;2023-04-28T06:03:41;26.63;;;10.95;;
39540;SDS011;25219;52.244;21.006;2023-04-28T06:06:06;26.27;;;11.77;;
39540;SDS011;25219;52.244;21.006;2023-04-28T06:08:32;25.90;;;11.18;;
39540;SDS011;25219;52.244;21.006;2023-04-28T06:10:57;29.08;;;11.02;;
39540;SDS011;25219;52.244;21.006;2023-04-28T06:13:22;24.10;;;10.23;;
39540;SDS011;25219;52.244;21.006;2023-04-28T06:15:47;17.63;;;9.43;;
39540;SDS011;25219;52.244;21.006;2023-04-28T06:18:12;21.93;;;10.63;;
39540;SDS011;25219;52.244;21.006;2023-04-28T06:20:40;22.17;;;10.35;;
39540;SDS011;25219;52.244;21.006;2023-04-28T06:23:05;24.85;;;10.98;;
39540;SDS011;25219;52.244;21.006;2023-04-28T06:25:30;28.92;;;10.77;;
39540;SDS011;25219;52.244;21.006;2023-04-28T06:27:56;26.05;;;10.68;;
39540;SDS011;25219;52.244;21.006;2023-04-28T06:30:21;23.43;;;9.93;;
39540;SDS011;25219;52.244;21.006;2023-04-28T06:32:47;24.02;;;9.60;;
39540;SDS011;25219;52.244;21.006;2023-04-28T06:35:12;21.33;;;9.30;;
39540;SDS011;25219;52.244;21.006;2023-04-28T06:37:38;24.85;;;8.90;;
39540;SDS011;25219;52.244;21.006;2023-04-28T06:40:03;23.57;;;8.63;;
39540;SDS011;25219;52.244;21.006;2023-04-28T06:42:28;19.08;;;7.72;;
39540;SDS011;25219;52.244;21.006;2023-04-28T06:44:53;31.83;;;8.93;;
39540;SDS011;25219;52.244;21.006;2023-04-28T06:47:19;13.57;;;6.28;;
39540;SDS011;25219;52.244;21.006;2023-04-28T06:49:44;20.85;;;6.93;;
39540;SDS011;25219;52.244;21.006;2023-04-28T06:52:11;21.88;;;7.00;;
39540;SDS011;25219;52.244;21.006;2023-04-28T06:54:38;14.77;;;6.28;;
39540;SDS011;25219;52.244;21.006;2023-04-28T06:57:03;11.53;;;5.60;;
39540;SDS011;25219;52.244;21.006;2023-04-28T06:59:28;12.48;;;5.70;;
39540;SDS011;25219;52.244;21.006;2023-04-28T07:01:53;12.77;;;5.20;;
39540;SDS011;25219;52.244;21.006;2023-04-28T07:04:19;15.67;;;5.20;;
39540;SDS011;25219;52.244;21.006;2023-04-28T07:06:44;18.30;;;5.38;;
39540;SDS011;25219;52.244;21.006;2023-04-28T07:09:09;22.73;;;5.38;;
39540;SDS011;25219;52.244;21.006;2023-04-28T07:11:35;19.17;;;5.57;;
39540;SDS011;25219;52.244;21.006;2023-04-28T07:14:00;10.27;;;4.72;;
39540;SDS011;25219;52.244;21.006;2023-04-28T07:16:25;8.77;;;4.32;;
39540;SDS011;25219;52.244;21.006;2023-04-28T07:18:50;9.43;;;5.07;;
39540;SDS011;25219;52.244;21.006;2023-04-28T07:21:15;13.18;;;4.70;;
39540;SDS011;25219;52.244;21.006;2023-04-28T07:23:41;12.40;;;4.20;;
39540;SDS011;25219;52.244;21.006;2023-04-28T07:26:07;9.75;;;4.95;;
39540;SDS011;25219;52.244;21.006;2023-04-28T07:28:32;10.63;;;4.07;;
39540;SDS011;25219;52.244;21.006;2023-04-28T07:30:57;10.45;;;3.83;;
39540;SDS011;25219;52.244;21.006;2023-04-28T07:33:23;9.43;;;3.83;;
39540;SDS011;25219;52.244;21.006;2023-04-28T07:35:48;7.75;;;3.10;;
39540;SDS011;25219;52.244;21.006;2023-04-28T07:38:13;10.43;;;3.78;;
39540;SDS011;25219;52.244;21.006;2023-04-28T07:40:38;6.00;;;3.47;;
39540;SDS011;25219;52.244;21.006;2023-04-28T07:43:04;6.85;;;3.20;;
39540;SDS011;25219;52.244;21.006;2023-04-28T07:45:29;8.40;;;3.43;;
39540;SDS011;25219;52.244;21.006;2023-04-28T07:47:54;13.67;;;3.07;;
39540;SDS011;25219;52.244;21.006;2023-04-28T07:50:20;8.88;;;2.75;;
39540;SDS011;25219;52.244;21.006;2023-04-28T07:52:45;8.68;;;3.17;;
39540;SDS011;25219;52.244;21.006;2023-04-28T07:55:10;9.80;;;4.53;;
39540;SDS011;25219;52.244;21.006;2023-04-28T07:57:36;6.63;;;2.73;;
39540;SDS011;25219;52.244;21.006;2023-04-28T08:00:01;5.50;;;2.00;;
39540;SDS011;25219;52.244;21.006;2023-04-28T08:02:27;7.38;;;2.72;;
39540;SDS011;25219;52.244;21.006;2023-04-28T08:04:52;10.57;;;2.17;;
39540;SDS011;25219;52.244;21.006;2023-04-28T08:07:17;7.33;;;1.80;;
39540;SDS011;25219;52.244;21.006;2023-04-28T08:09:43;4.20;;;1.98;;
39540;SDS011;25219;52.244;21.006;2023-04-28T08:12:11;5.13;;;1.90;;
39540;SDS011;25219;52.244;21.006;2023-04-28T08:14:36;3.95;;;1.65;;
39540;SDS011;25219;52.244;21.006;2023-04-28T08:17:01;5.20;;;1.58;;
39540;SDS011;25219;52.244;21.006;2023-04-28T08:19:27;4.03;;;1.70;;
39540;SDS011;25219;52.244;21.006;2023-04-28T08:21:52;4.27;;;2.10;;
39540;SDS011;25219;52.244;21.006;2023-04-28T08:24:17;4.20;;;1.67;;
39540;SDS011;25219;52.244;21.006;2023-04-28T08:26:42;4.70;;;2.20;;
39540;SDS011;25219;52.244;21.006;2023-04-28T08:29:08;5.05;;;2.22;;
39540;SDS011;25219;52.244;21.006;2023-04-28T08:31:33;5.93;;;2.10;;
39540;SDS011;25219;52.244;21.006;2023-04-28T08:33:58;7.33;;;2.60;;
39540;SDS011;25219;52.244;21.006;2023-04-28T08:36:24;9.13;;;2.57;;
39540;SDS011;25219;52.244;21.006;2023-04-28T08:38:50;10.25;;;3.58;;
39540;SDS011;25219;52.244;21.006;2023-04-28T08:41:15;4.97;;;1.80;;
39540;SDS011;25219;52.244;21.006;2023-04-28T08:43:41;8.27;;;2.33;;
39540;SDS011;25219;52.244;21.006;2023-04-28T08:46:07;3.20;;;2.13;;
39540;SDS011;25219;52.244;21.006;2023-04-28T08:48:39;3.08;;;1.80;;
39540;SDS011;25219;52.244;21.006;2023-04-28T08:51:05;9.77;;;2.80;;
39540;SDS011;25219;52.244;21.006;2023-04-28T08:53:31;7.82;;;2.85;;
39540;SDS011;25219;52.244;21.006;2023-04-28T08:56:00;4.65;;;2.42;;
39540;SDS011;25219;52.244;21.006;2023-04-28T08:58:28;7.70;;;2.20;;
39540;SDS011;25219;52.244;21.006;2023-04-28T09:00:53;4.45;;;2.25;;
39540;SDS011;25219;52.244;21.006;2023-04-28T09:03:18;4.03;;;1.92;;
39540;SDS011;25219;52.244;21.006;2023-04-28T09:05:44;3.87;;;2.10;;
39540;SDS011;25219;52.244;21.006;2023-04-28T09:08:09;6.17;;;2.53;;
39540;SDS011;25219;52.244;21.006;2023-04-28T09:10:36;7.47;;;2.22;;
39540;SDS011;25219;52.244;21.006;2023-04-28T09:13:02;5.38;;;2.53;;
39540;SDS011;25219;52.244;21.006;2023-04-28T09:15:31;4.22;;;2.50;;
39540;SDS011;25219;52.244;21.006;2023-04-28T09:17:56;7.35;;;2.80;;
39540;SDS011;25219;52.244;21.006;2023-04-28T09:20:22;5.22;;;2.78;;
39540;SDS011;25219;52.244;21.006;2023-04-28T09:22:48;3.28;;;2.40;;
39540;SDS011;25219;52.244;21.006;2023-04-28T09:25:14;8.80;;;2.88;;
39540;SDS011;25219;52.244;21.006;2023-04-28T09:27:40;5.93;;;2.78;;
39540;SDS011;25219;52.244;21.006;2023-04-28T09:30:05;6.30;;;2.53;;
39540;SDS011;25219;52.244;21.006;2023-04-28T09:32:31;7.38;;;2.35;;
39540;SDS011;25219;52.244;21.006;2023-04-28T09:34:56;7.33;;;3.00;;
39540;SDS011;25219;52.244;21.006;2023-04-28T09:37:22;8.27;;;2.60;;
39540;SDS011;25219;52.244;21.006;2023-04-28T09:39:48;3.25;;;2.20;;
39540;SDS011;25219;52.244;21.006;2023-04-28T09:44:59;8.38;;;2.13;;
39540;SDS011;25219;52.244;21.006;2023-04-28T09:47:26;8.23;;;2.42;;
39540;SDS011;25219;52.244;21.006;2023-04-28T09:52:20;7.38;;;2.47;;
39540;SDS011;25219;52.244;21.006;2023-04-28T09:54:45;5.22;;;2.80;;
39540;SDS011;25219;52.244;21.006;2023-04-28T09:57:13;10.45;;;2.90;;
39540;SDS011;25219;52.244;21.006;2023-04-28T09:59:39;6.78;;;2.35;;
39540;SDS011;25219;52.244;21.006;2023-04-28T10:02:04;8.63;;;2.50;;
39540;SDS011;25219;52.244;21.006;2023-04-28T10:04:29;11.40;;;2.28;;
39540;SDS011;25219;52.244;21.006;2023-04-28T10:06:57;7.63;;;2.60;;
39540;SDS011;25219;52.244;21.006;2023-04-28T10:09:23;5.45;;;3.00;;
39540;SDS011;25219;52.244;21.006;2023-04-28T10:11:50;5.75;;;2.60;;
39540;SDS011;25219;52.244;21.006;2023-04-28T10:14:16;6.40;;;2.22;;
39540;SDS011;25219;52.244;21.006;2023-04-28T10:16:42;10.65;;;3.03;;
39540;SDS011;25219;52.244;21.006;2023-04-28T10:19:08;6.13;;;2.25;;
39540;SDS011;25219;52.244;21.006;2023-04-28T10:21:34;7.30;;;2.70;;
39540;SDS011;25219;52.244;21.006;2023-04-28T10:24:09;8.27;;;2.80;;
39540;SDS011;25219;52.244;21.006;2023-04-28T10:27:01;12.18;;;2.80;;
39540;SDS011;25219;52.244;21.006;2023-04-28T10:29:27;6.90;;;2.30;;
39540;SDS011;25219;52.244;21.006;2023-04-28T10:34:37;5.43;;;2.50;;
39540;SDS011;25219;52.244;21.006;2023-04-28T10:37:03;11.18;;;3.75;;
39540;SDS011;25219;52.244;21.006;2023-04-28T10:39:28;5.47;;;2.47;;
39540;SDS011;25219;52.244;21.006;2023-04-28T10:41:54;6.25;;;2.53;;
39540;SDS011;25219;52.244;21.006;2023-04-28T10:47:00;5.40;;;2.25;;
39540;SDS011;25219;52.244;21.006;2023-04-28T10:57:43;11.30;;;2.22;;
39540;SDS011;25219;52.244;21.006;2023-04-28T11:00:27;8.43;;;2.47;;
39540;SDS011;25219;52.244;21.006;2023-04-28T11:02:54;5.78;;;2.08;;
39540;SDS011;25219;52.244;21.006;2023-04-28T11:05:20;4.85;;;2.17;;
39540;SDS011;25219;52.244;21.006;2023-04-28T11:08:46;5.50;;;2.40;;
39540;SDS011;25219;52.244;21.006;2023-04-28T11:13:27;7.85;;;2.58;;
39540;SDS011;25219;52.244;21.006;2023-04-28T11:16:03;5.75;;;2.38;;
39540;SDS011;25219;52.244;21.006;2023-04-28T11:18:30;2.53;;;2.10;;
39540;SDS011;25219;52.244;21.006;2023-04-28T11:20:59;10.40;;;2.22;;
39540;SDS011;25219;52.244;21.006;2023-04-28T11:23:26;5.83;;;2.50;;
39540;SDS011;25219;52.244;21.006;2023-04-28T11:25:52;7.20;;;2.53;;
39540;SDS011;25219;52.244;21.006;2023-04-28T11:28:17;4.97;;;2.22;;
39540;SDS011;25219;52.244;21.006;2023-04-28T11:30:42;3.73;;;2.00;;
39540;SDS011;25219;52.244;21.006;2023-04-28T11:33:08;4.53;;;2.10;;
39540;SDS011;25219;52.244;21.006;2023-04-28T11:35:40;3.40;;;1.80;;
39540;SDS011;25219;52.244;21.006;2023-04-28T11:38:05;4.15;;;2.38;;
39540;SDS011;25219;52.244;21.006;2023-04-28T11:40:30;4.67;;;2.00;;
39540;SDS011;25219;52.244;21.006;2023-04-28T11:42:56;4.93;;;2.05;;
39540;SDS011;25219;52.244;21.006;2023-04-28T11:45:23;3.65;;;2.30;;
39540;SDS011;25219;52.244;21.006;2023-04-28T11:47:48;4.35;;;2.53;;
39540;SDS011;25219;52.244;21.006;2023-04-28T11:50:14;4.53;;;2.33;;
39540;SDS011;25219;52.244;21.006;2023-04-28T11:52:49;5.65;;;2.40;;
39540;SDS011;25219;52.244;21.006;2023-04-28T11:55:17;6.28;;;2.10;;
39540;SDS011;25219;52.244;21.006;2023-04-28T11:57:42;4.55;;;2.60;;
39540;SDS011;25219;52.244;21.006;2023-04-28T12:00:11;6.83;;;2.03;;
39540;SDS011;25219;52.244;21.006;2023-04-28T12:02:38;8.73;;;2.22;;
39540;SDS011;25219;52.244;21.006;2023-04-28T12:05:06;7.75;;;2.30;;
39540;SDS011;25219;52.244;21.006;2023-04-28T12:07:39;4.18;;;2.38;;
39540;SDS011;25219;52.244;21.006;2023-04-28T12:10:09;4.70;;;2.30;;
39540;SDS011;25219;52.244;21.006;2023-04-28T12:12:35;6.65;;;2.30;;
39540;SDS011;25219;52.244;21.006;2023-04-28T12:15:01;3.85;;;2.08;;
39540;SDS011;25219;52.244;21.006;2023-04-28T12:17:29;3.83;;;1.95;;
39540;SDS011;25219;52.244;21.006;2023-04-28T12:19:55;5.13;;;2.20;;
39540;SDS011;25219;52.244;21.006;2023-04-28T12:22:21;3.95;;;2.33;;
39540;SDS011;25219;52.244;21.006;2023-04-28T12:25:01;5.53;;;2.33;;
39540;SDS011;25219;52.244;21.006;2023-04-28T12:27:26;9.00;;;2.63;;
39540;SDS011;25219;52.244;21.006;2023-04-28T12:29:53;6.75;;;2.10;;
39540;SDS011;25219;52.244;21.006;2023-04-28T12:32:18;4.20;;;2.20;;
39540;SDS011;25219;52.244;21.006;2023-04-28T12:34:44;3.67;;;2.50;;
39540;SDS011;25219;52.244;21.006;2023-04-28T12:37:10;5.43;;;2.50;;
39540;SDS011;25219;52.244;21.006;2023-04-28T12:39:37;4.65;;;2.15;;
39540;SDS011;25219;52.244;21.006;2023-04-28T12:42:03;4.78;;;2.40;;
39540;SDS011;25219;52.244;21.006;2023-04-28T12:44:31;5.53;;;2.30;;
39540;SDS011;25219;52.244;21.006;2023-04-28T12:49:24;4.35;;;2.15;;
39540;SDS011;25219;52.244;21.006;2023-04-28T12:51:50;5.87;;;2.17;;
39540;SDS011;25219;52.244;21.006;2023-04-28T12:54:15;8.35;;;3.08;;
39540;SDS011;25219;52.244;21.006;2023-04-28T12:56:40;6.77;;;2.60;;
39540;SDS011;25219;52.244;21.006;2023-04-28T12:59:06;8.18;;;2.75;;
39540;SDS011;25219;52.244;21.006;2023-04-28T13:01:31;4.17;;;2.57;;
39540;SDS011;25219;52.244;21.006;2023-04-28T13:03:57;36.17;;;15.88;;
39540;SDS011;25219;52.244;21.006;2023-04-28T13:06:23;6.28;;;3.53;;
39540;SDS011;25219;52.244;21.006;2023-04-28T13:08:48;5.60;;;2.87;;
39540;SDS011;25219;52.244;21.006;2023-04-28T13:11:13;5.27;;;2.67;;
39540;SDS011;25219;52.244;21.006;2023-04-28T13:13:38;6.57;;;3.00;;
39540;SDS011;25219;52.244;21.006;2023-04-28T13:16:03;7.03;;;2.97;;
39540;SDS011;25219;52.244;21.006;2023-04-28T13:18:29;5.50;;;3.03;;
39540;SDS011;25219;52.244;21.006;2023-04-28T13:20:55;8.85;;;2.88;;
39540;SDS011;25219;52.244;21.006;2023-04-28T13:23:20;6.07;;;3.00;;
39540;SDS011;25219;52.244;21.006;2023-04-28T13:25:46;11.48;;;3.35;;
39540;SDS011;25219;52.244;21.006;2023-04-28T13:28:11;5.27;;;3.40;;
39540;SDS011;25219;52.244;21.006;2023-04-28T13:30:37;6.90;;;3.40;;
39540;SDS011;25219;52.244;21.006;2023-04-28T13:33:02;6.80;;;3.47;;
39540;SDS011;25219;52.244;21.006;2023-04-28T13:35:28;8.88;;;4.28;;
39540;SDS011;25219;52.244;21.006;2023-04-28T13:37:53;6.07;;;3.10;;
39540;SDS011;25219;52.244;21.006;2023-04-28T13:40:25;5.25;;;3.30;;
39540;SDS011;25219;52.244;21.006;2023-04-28T13:42:50;7.27;;;3.63;;
39540;SDS011;25219;52.244;21.006;2023-04-28T13:45:16;6.50;;;3.40;;
39540;SDS011;25219;52.244;21.006;2023-04-28T13:47:41;10.20;;;3.63;;
39540;SDS011;25219;52.244;21.006;2023-04-28T13:50:06;8.47;;;3.67;;
39540;SDS011;25219;52.244;21.006;2023-04-28T13:52:31;7.70;;;3.47;;
39540;SDS011;25219;52.244;21.006;2023-04-28T13:54:57;7.10;;;3.73;;
39540;SDS011;25219;52.244;21.006;2023-04-28T13:57:22;8.07;;;3.80;;
39540;SDS011;25219;52.244;21.006;2023-04-28T13:59:47;8.40;;;3.40;;
39540;SDS011;25219;52.244;21.006;2023-04-28T14:02:12;15.03;;;3.70;;
39540;SDS011;25219;52.244;21.006;2023-04-28T14:04:38;6.23;;;3.70;;
39540;SDS011;25219;52.244;21.006;2023-04-28T14:07:03;4.43;;;3.07;;
39540;SDS011;25219;52.244;21.006;2023-04-28T14:09:28;9.03;;;4.53;;
39540;SDS011;25219;52.244;21.006;2023-04-28T14:11:53;7.60;;;3.50;;
39540;SDS011;25219;52.244;21.006;2023-04-28T14:14:22;7.20;;;3.40;;
39540;SDS011;25219;52.244;21.006;2023-04-28T14:16:47;9.85;;;3.67;;
39540;SDS011;25219;52.244;21.006;2023-04-28T14:19:12;7.53;;;4.17;;
39540;SDS011;25219;52.244;21.006;2023-04-28T14:21:41;7.07;;;4.03;;
39540;SDS011;25219;52.244;21.006;2023-04-28T14:24:06;12.95;;;5.22;;
39540;SDS011;25219;52.244;21.006;2023-04-28T14:26:31;10.90;;;5.93;;
39540;SDS011;25219;52.244;21.006;2023-04-28T14:28:57;14.17;;;3.97;;
39540;SDS011;25219;52.244;21.006;2023-04-28T14:31:24;7.30;;;3.80;;
39540;SDS011;25219;52.244;21.006;2023-04-28T14:33:49;5.97;;;3.80;;
39540;SDS011;25219;52.244;21.006;2023-04-28T14:36:14;7.65;;;4.05;;